METAR Data
IDs: Format: Raw Decoded Include TAF

Data at: 0241 UTC 25 Jan 2020

PALH 250153Z 19005KT 10SM CLR M15/M18 A2944 RMK AO2 SLP969 T11501183
PALH 250053Z 15003KT 10SM CLR M13/M18 A2943 RMK AO2 SLP967 T11281178
PALH 242353Z 00000KT 10SM CLR M12/M18 A2942 RMK AO2 SLP963 60000 T11221178 11122 21172 56004
PALH 242253Z 11005KT 10SM CLR M13/M18 A2942 RMK AO2 SLP964 T11281178
PALH 242153Z 09004KT 10SM SCT110 M13/M17 A2942 RMK AO2 SLP964 T11281172
PALH 242053Z 08004KT 10SM OVC100 M12/M16 A2943 RMK AO2 SNE13 SLP968 P0000 60000 T11221161 50002
PALH 242022Z 07006KT 10SM SCT024 OVC100 M12/M16 A2943 RMK AO2 SNE13 P0000 T11221156
PALH 242003Z 06004KT 3SM -SN BKN025 OVC035 M12/M16 A2943 RMK AO2 P0000 T11221156
PALH 241953Z 06007KT 1 1/2SM -SN BKN027 BKN036 OVC043 M13/M16 A2943 RMK AO2 TWR VIS 5 SNB30 SLP968 P0000 T11281156
PALH 241949Z 06006KT 1 3/4SM -SN BKN029 OVC040 M13/M16 A2943 RMK AO2 SNB30 P0000
PALH 241948Z 05005KT 1 3/4SM -SN BKN031 OVC040 M13/M16 A2943 RMK AO2 SNB30 P0000
PALH 241853Z 00000KT 10SM SCT110 M17/M20 A2943 RMK AO2 SLP965 T11721200
PALH 241753Z 12003KT 10SM BKN100 OVC120 M18/M21 A2942 RMK AO2 SLP965 T11781206 11144 21189 55005
PALH 241653Z 00000KT 10SM SCT120 M18/M21 A2942 RMK AO2 SLP965 T11831206
PALH 241553Z 12004KT 10SM OVC100 M17/M19 A2944 RMK AO2 SLP969 T11671194
PALH 241453Z 00000KT 10SM OVC110 M16/M19 A2944 RMK AO2 SLP970 T11611189 58007
PALH 241353Z 00000KT 10SM BKN095 BKN120 M15/M19 A2945 RMK AO2 SLP972 T11501189
PALH 241253Z 00000KT 10SM BKN100 M16/M19 A2946 RMK AO2 SLP976 T11561189
PALH 241153Z 00000KT 10SM OVC100 M16/M19 A2946 RMK AO2 SLP977 T11561189 11139 21200 56010
PALH 241053Z 15003KT 10SM BKN110 M18/M21 A2947 RMK AO2 SLP979 T11831211
PALH 240953Z 00000KT 10SM BKN120 M19/M22 A2948 RMK AO2 SLP983 T11891217
PALH 240853Z 00000KT 10SM FEW110 M19/M22 A2949 RMK AO2 SLP987 T11941222 411061194 53004
PALH 240753Z 00000KT 10SM OVC100 M17/M21 A2948 RMK AO2 SLP984 T11721206
PALH 240653Z 00000KT 10SM FEW090 M17/M20 A2948 RMK AO2 SLP983 T11671200
PALH 240553Z 00000KT 10SM FEW095 M18/M21 A2948 RMK AO2 SLP983 T11831211 11122 21183 53000
PALH 240453Z 00000KT 10SM CLR M16/M18 A2947 RMK AO2 SLP982 T11611183
PALH 240353Z 16004KT 10SM CLR M14/M17 A2947 RMK AO2 SLP981 T11441172
PALH 240253Z 20003KT 10SM CLR M14/M17 A2948 RMK AO2 SLP983 T11391167 58004
PALH 240153Z 17003KT 10SM CLR M13/M16 A2948 RMK AO2 SLP984 T11331161
PALH 240053Z 15003KT 10SM CLR M13/M17 A2948 RMK AO2 SLP986 T11281167
PALH 232353Z 16004KT 10SM CLR M12/M17 A2949 RMK AO2 SLP987 T11221172 11122 21167 56012
PALH 232253Z 16004KT 10SM CLR M12/M17 A2949 RMK AO2 SLP988 T11221172
PALH 232153Z 18004KT 10SM CLR M13/M18 A2951 RMK AO2 SLP993 T11331178
PALH 232053Z VRB03KT 10SM CLR M15/M18 A2952 RMK AO2 SLP999 T11501183 58001
PALH 231953Z 16003KT 10SM CLR M16/M19 A2952 RMK AO2 SLP999 T11611189
PALH 231853Z 02005KT 10SM FEW049 M16/M19 A2953 RMK AO2 SLP001 T11561189
PALH 231753Z 02003KT 10SM OVC050 M15/M18 A2953 RMK AO2 SLP000 60000 T11501183 11111 21178 56013
PALH 231653Z 00000KT 10SM OVC065 M17/M20 A2953 RMK AO2 SLP003 T11671200
PALH 231553Z 00000KT 10SM OVC085 M17/M19 A2954 RMK AO2 SLP005 T11671194
PALH 231453Z 31003KT 10SM SCT009 SCT090 M16/M18 A2957 RMK AO2 SLP013 60000 T11611183 56014
PALH 231451Z 31004KT 10SM SCT009 M16/M18 A2957 RMK AO2
PALH 231442Z 32005KT 10SM BKN009 BKN075 M16/M18 A2957 RMK AO2 T11561178